createdAt,value
2018-12-02T00:01:47.080Z,-0.83
2018-12-02T00:04:23.430Z,-0.73
2018-12-02T00:06:59.854Z,-0.73
2018-12-02T00:09:36.763Z,-0.74
2018-12-02T00:12:13.711Z,-0.75
2018-12-02T00:14:50.073Z,-0.71
2018-12-02T00:17:26.301Z,-0.72
2018-12-02T00:20:02.856Z,-0.95
2018-12-02T00:22:39.341Z,-1.25
2018-12-02T00:25:16.609Z,-1.37
2018-12-02T00:27:56.916Z,-1.29
2018-12-02T00:30:33.628Z,-1.16
2018-12-02T00:33:09.939Z,-0.92
2018-12-02T00:35:46.267Z,-0.76
2018-12-02T00:38:22.809Z,-0.84
2018-12-02T00:40:59.189Z,-1.15
2018-12-02T00:43:35.528Z,-1.40
2018-12-02T00:46:12.266Z,-1.44
2018-12-02T00:48:48.445Z,-1.62
2018-12-02T00:51:24.779Z,-1.50
2018-12-02T00:54:00.972Z,-1.57
2018-12-02T00:56:37.211Z,-1.32
2018-12-02T00:59:13.832Z,-1.26
2018-12-02T01:01:50.158Z,-1.18
2018-12-02T01:04:26.651Z,-0.98
2018-12-02T01:07:03.238Z,-1.26
2018-12-02T01:09:39.550Z,-1.69
2018-12-02T01:12:15.903Z,-1.90
2018-12-02T01:14:52.038Z,-1.96
2018-12-02T01:17:28.356Z,-1.86
2018-12-02T01:20:04.854Z,-1.57
2018-12-02T01:22:40.980Z,-1.26
2018-12-02T01:25:17.284Z,-1.19
2018-12-02T01:27:53.637Z,-1.44
2018-12-02T01:30:31.308Z,-1.42
2018-12-02T01:33:08.509Z,-1.25
2018-12-02T01:35:44.668Z,-1.16
2018-12-02T01:38:21.497Z,-1.05
2018-12-02T01:40:59.554Z,-1.19
2018-12-02T01:43:35.844Z,-1.11
2018-12-02T01:46:13.746Z,-1.05
2018-12-02T01:48:49.975Z,-1.04
2018-12-02T01:51:26.071Z,-1.11
2018-12-02T01:54:02.212Z,-1.29
2018-12-02T01:56:39.184Z,-1.29
2018-12-02T01:59:15.536Z,-1.25
2018-12-02T02:01:51.896Z,-1.18
2018-12-02T02:04:28.415Z,-1.24
2018-12-02T02:07:04.801Z,-1.10
2018-12-02T02:09:41.053Z,-1.03
2018-12-02T02:12:17.577Z,-1.12
2018-12-02T02:14:53.831Z,-1.16
2018-12-02T02:17:30.561Z,-1.21
2018-12-02T02:20:08.807Z,-1.20
2018-12-02T02:22:46.624Z,-1.28
2018-12-02T02:25:24.429Z,-1.17
2018-12-02T02:28:00.607Z,-1.17
2018-12-02T02:30:37.580Z,-1.13
2018-12-02T02:33:14.159Z,-1.32
2018-12-02T02:35:50.359Z,-1.22
2018-12-02T02:38:26.610Z,-1.38
2018-12-02T02:41:02.771Z,-1.38
2018-12-02T02:43:39.030Z,-1.43
2018-12-02T02:46:15.439Z,-1.70
2018-12-02T02:48:51.754Z,-1.76
2018-12-02T02:51:27.927Z,-1.82
2018-12-02T02:54:04.040Z,-2.35
2018-12-02T02:56:40.196Z,-2.69
2018-12-02T02:59:16.490Z,-2.75
2018-12-02T03:01:52.755Z,-2.46
2018-12-02T03:04:28.996Z,-2.39
2018-12-02T03:07:05.493Z,-2.61
2018-12-02T03:09:41.667Z,-2.32
2018-12-02T03:12:17.992Z,-2.29
2018-12-02T03:14:54.343Z,-2.12
2018-12-02T03:17:30.512Z,-2.03
2018-12-02T03:20:12.333Z,-1.98
2018-12-02T03:22:49.642Z,-2.07
2018-12-02T03:25:27.019Z,-2.01
2018-12-02T03:28:03.150Z,-2.08
2018-12-02T03:30:39.525Z,-2.08
2018-12-02T03:33:15.706Z,-2.05
2018-12-02T03:35:51.927Z,-2.10
2018-12-02T03:38:28.800Z,-2.14
2018-12-02T03:41:05.256Z,-2.19
2018-12-02T03:43:41.481Z,-2.21
2018-12-02T03:46:18.408Z,-2.20
2018-12-02T03:48:54.683Z,-2.17
2018-12-02T03:51:30.962Z,-2.24
2018-12-02T03:54:07.301Z,-2.36
2018-12-02T03:56:47.693Z,-2.42
2018-12-02T03:59:24.054Z,-2.56
2018-12-02T04:02:00.371Z,-2.49
2018-12-02T04:04:36.914Z,-2.54
2018-12-02T04:07:13.175Z,-2.55
2018-12-02T04:09:49.421Z,-2.96
2018-12-02T04:12:25.649Z,-3.03
2018-12-02T04:15:02.280Z,-3.17
2018-12-02T04:17:38.501Z,-3.52
2018-12-02T04:20:17.686Z,-3.72
2018-12-02T04:22:54.023Z,-3.71
2018-12-02T04:25:30.359Z,-3.40
2018-12-02T04:28:07.083Z,-3.23
2018-12-02T04:30:43.214Z,-2.94
2018-12-02T04:33:19.371Z,-2.85
2018-12-02T04:35:55.586Z,-2.72
2018-12-02T04:38:32.260Z,-2.66
2018-12-02T04:41:08.549Z,-2.74
2018-12-02T04:43:44.821Z,-2.73
2018-12-02T04:46:21.418Z,-2.89
2018-12-02T04:48:57.431Z,-2.96
2018-12-02T04:51:33.731Z,-2.96
2018-12-02T04:54:09.876Z,-2.85
2018-12-02T04:56:46.070Z,-2.96
2018-12-02T04:59:22.161Z,-2.93
2018-12-02T05:01:58.340Z,-3.12
2018-12-02T05:04:34.536Z,-3.20
2018-12-02T05:07:10.644Z,-3.39
2018-12-02T05:09:46.912Z,-3.12
2018-12-02T05:12:23.299Z,-2.97
2018-12-02T05:14:59.584Z,-3.18
2018-12-02T05:17:35.890Z,-3.37
2018-12-02T05:20:15.172Z,-3.12
2018-12-02T05:22:51.437Z,-3.15
2018-12-02T05:25:27.603Z,-3.07
2018-12-02T05:28:03.840Z,-2.92
2018-12-02T05:30:40.102Z,-2.96
2018-12-02T05:33:16.260Z,-2.95
2018-12-02T05:35:52.401Z,-3.09
2018-12-02T05:38:28.611Z,-3.18
2018-12-02T05:41:05.133Z,-2.92
2018-12-02T05:43:42.626Z,-2.76
2018-12-02T05:46:18.923Z,-3.11
2018-12-02T05:48:55.224Z,-3.02
2018-12-02T05:51:31.348Z,-2.99
2018-12-02T05:54:07.695Z,-3.04
2018-12-02T05:56:44.031Z,-3.24
2018-12-02T05:59:20.188Z,-3.39
2018-12-02T06:01:56.279Z,-3.74
2018-12-02T06:04:32.462Z,-4.01
2018-12-02T06:07:08.723Z,-4.15
2018-12-02T06:09:45.164Z,-4.27
2018-12-02T06:12:21.291Z,-4.35
2018-12-02T06:14:57.483Z,-4.11
2018-12-02T06:17:33.799Z,-4.00
2018-12-02T06:20:13.482Z,-3.94
2018-12-02T06:22:50.217Z,-3.54
2018-12-02T06:25:26.464Z,-3.40
2018-12-02T06:28:02.747Z,-3.28
2018-12-02T06:30:39.154Z,-3.06
2018-12-02T06:33:15.262Z,-3.09
2018-12-02T06:35:51.503Z,-2.89
2018-12-02T06:38:28.645Z,-2.75
2018-12-02T06:41:04.840Z,-2.75
2018-12-02T06:43:40.951Z,-2.45
2018-12-02T06:46:17.299Z,-2.37
2018-12-02T06:48:54.019Z,-2.23
2018-12-02T06:51:31.971Z,-2.00
2018-12-02T06:54:08.232Z,-1.77
2018-12-02T06:56:52.227Z,-1.43
2018-12-02T06:59:56.283Z,-1.05
2018-12-02T07:03:18.283Z,-1.04
2018-12-02T07:05:54.694Z,-0.95
2018-12-02T07:08:30.891Z,-1.46
2018-12-02T07:11:07.218Z,-1.68
2018-12-02T07:13:43.376Z,-1.61
2018-12-02T07:16:19.962Z,-1.57
2018-12-02T07:19:00.612Z,-1.58
2018-12-02T07:21:40.674Z,-1.43
2018-12-02T07:24:20.939Z,-1.01
2018-12-02T07:27:01.388Z,-0.98
2018-12-02T07:29:37.922Z,-1.14
2018-12-02T07:32:15.008Z,-1.23
2018-12-02T07:34:53.765Z,-1.03
2018-12-02T07:37:30.164Z,-0.55
2018-12-02T07:40:29.668Z,-0.36
2018-12-02T07:43:09.644Z,-0.09
2018-12-02T07:45:46.570Z,-0.08
2018-12-02T07:48:23.026Z,0.20
2018-12-02T07:50:59.907Z,0.30
2018-12-02T07:53:37.273Z,0.21
2018-12-02T07:56:14.093Z,0.17
2018-12-02T07:58:53.778Z,0.29
2018-12-02T08:01:31.268Z,0.50
2018-12-02T08:04:08.175Z,0.68
2018-12-02T08:06:45.559Z,0.47
2018-12-02T08:09:22.239Z,0.83
2018-12-02T08:12:02.931Z,0.76
2018-12-02T08:14:39.934Z,0.87
2018-12-02T08:17:16.964Z,1.24
2018-12-02T08:19:54.656Z,1.52
2018-12-02T08:22:31.440Z,1.64
2018-12-02T08:25:10.391Z,1.70
2018-12-02T08:27:46.984Z,1.84
2018-12-02T08:30:26.221Z,1.89
2018-12-02T08:33:04.758Z,1.98
2018-12-02T08:35:41.906Z,1.98
2018-12-02T08:38:18.359Z,2.25
2018-12-02T08:40:54.816Z,2.43
2018-12-02T08:43:31.610Z,2.58
2018-12-02T08:46:08.240Z,2.81
2018-12-02T08:48:45.102Z,3.09
2018-12-02T08:51:21.322Z,3.26
2018-12-02T08:53:58.448Z,3.15
2018-12-02T08:56:36.480Z,3.26
2018-12-02T08:59:12.647Z,3.39
2018-12-02T09:02:00.171Z,3.33
2018-12-02T09:04:37.923Z,3.40
2018-12-02T09:07:15.198Z,3.38
2018-12-02T09:09:59.370Z,3.38
2018-12-02T09:12:32.559Z,3.59
2018-12-02T09:15:10.892Z,3.69
2018-12-02T09:17:47.783Z,3.90
2018-12-02T09:20:27.601Z,3.94
2018-12-02T09:23:04.467Z,3.97
2018-12-02T09:25:43.786Z,3.90
2018-12-02T09:28:19.948Z,4.17
2018-12-02T09:30:56.528Z,4.18
2018-12-02T09:33:34.546Z,4.25
2018-12-02T09:36:11.513Z,4.33
2018-12-02T09:38:48.098Z,4.43
2018-12-02T09:41:24.841Z,4.58
2018-12-02T09:44:01.601Z,4.54
2018-12-02T09:46:38.202Z,4.63
2018-12-02T09:49:15.874Z,4.85
2018-12-02T09:51:53.549Z,4.75
2018-12-02T09:54:29.965Z,4.81
2018-12-02T09:57:08.144Z,4.81
2018-12-02T09:59:46.727Z,4.76
2018-12-02T10:02:23.879Z,4.71
2018-12-02T10:05:02.260Z,4.83
2018-12-02T10:07:39.179Z,4.97
2018-12-02T10:10:22.373Z,5.03
2018-12-02T10:12:59.769Z,5.27
2018-12-02T10:15:36.401Z,5.56
2018-12-02T10:18:13.479Z,5.53
2018-12-02T10:20:50.592Z,5.24
2018-12-02T10:23:26.971Z,5.48
2018-12-02T10:26:03.295Z,5.56
2018-12-02T10:28:39.567Z,5.84
2018-12-02T10:31:15.837Z,5.90
2018-12-02T10:33:53.355Z,6.06
2018-12-02T10:36:30.699Z,6.23
2018-12-02T10:39:10.001Z,6.17
2018-12-02T10:41:46.927Z,6.55
2018-12-02T10:44:23.130Z,6.84
2018-12-02T10:46:59.721Z,6.70
2018-12-02T10:49:35.953Z,6.70
2018-12-02T10:52:13.281Z,6.61
2018-12-02T10:54:49.529Z,6.80
2018-12-02T10:57:25.948Z,6.92
2018-12-02T11:00:03.506Z,6.89
2018-12-02T11:02:43.788Z,6.96
2018-12-02T11:05:21.282Z,6.84
2018-12-02T11:07:57.396Z,6.72
2018-12-02T11:10:33.989Z,6.97
2018-12-02T11:13:10.854Z,7.07
2018-12-02T11:15:48.275Z,7.14
2018-12-02T11:18:24.484Z,7.34
2018-12-02T11:21:00.730Z,7.40
2018-12-02T11:23:37.810Z,7.45
2018-12-02T11:26:15.325Z,7.50
2018-12-02T11:28:51.634Z,7.51
2018-12-02T11:31:28.036Z,7.66
2018-12-02T11:34:04.824Z,7.72
2018-12-02T11:36:41.629Z,7.79
2018-12-02T11:39:17.914Z,7.74
2018-12-02T11:41:54.259Z,7.94
2018-12-02T11:44:31.429Z,8.00
2018-12-02T11:47:07.659Z,7.99
2018-12-02T11:49:44.596Z,8.08
2018-12-02T11:52:22.355Z,8.21
2018-12-02T11:54:59.428Z,8.29
2018-12-02T11:57:36.049Z,8.44
2018-12-02T12:00:27.653Z,8.55
2018-12-02T12:03:04.389Z,8.50
2018-12-02T12:05:41.865Z,8.62
2018-12-02T12:08:18.632Z,8.56
2018-12-02T12:10:55.217Z,8.75
2018-12-02T12:13:31.570Z,8.91
2018-12-02T12:16:08.242Z,8.86
2018-12-02T12:18:45.047Z,8.96
2018-12-02T12:21:21.451Z,9.06
2018-12-02T12:23:57.720Z,8.97
2018-12-02T12:26:34.076Z,9.12
2018-12-02T12:29:10.445Z,8.95
2018-12-02T12:31:47.454Z,9.01
2018-12-02T12:34:24.099Z,9.39
2018-12-02T12:37:01.563Z,9.50
2018-12-02T12:39:37.760Z,9.82
2018-12-02T12:42:14.683Z,9.99
2018-12-02T12:44:51.909Z,10.57
2018-12-02T12:47:28.207Z,10.43
2018-12-02T12:50:04.948Z,10.96
2018-12-02T12:52:41.376Z,11.62
2018-12-02T12:55:19.311Z,12.14
2018-12-02T12:57:56.306Z,13.01
2018-12-02T13:00:34.348Z,13.10
2018-12-02T13:03:11.042Z,12.67
2018-12-02T13:05:48.968Z,12.69
2018-12-02T13:08:22.489Z,13.42
2018-12-02T13:10:53.936Z,14.25
2018-12-02T13:13:25.449Z,14.03
2018-12-02T13:15:57.424Z,14.22
2018-12-02T13:18:28.844Z,14.05
2018-12-02T13:21:00.010Z,14.11
2018-12-02T13:23:31.990Z,13.76
2018-12-02T13:26:03.110Z,14.06
2018-12-02T13:28:35.358Z,14.18
2018-12-02T13:31:07.068Z,14.25
2018-12-02T13:33:39.027Z,12.99
2018-12-02T13:36:10.483Z,11.16
2018-12-02T13:38:42.092Z,10.30
2018-12-02T13:41:14.341Z,8.89
2018-12-02T13:43:46.368Z,7.87
2018-12-02T13:46:19.230Z,7.43
2018-12-02T13:48:51.426Z,7.12
2018-12-02T13:51:23.159Z,6.84
2018-12-02T13:54:00.698Z,6.60
2018-12-02T13:56:32.743Z,6.44
2018-12-02T13:59:04.797Z,6.12
2018-12-02T14:01:36.846Z,5.86
2018-12-02T14:04:09.205Z,5.63
2018-12-02T14:06:40.659Z,5.47
2018-12-02T14:09:13.350Z,5.25
2018-12-02T14:11:45.656Z,5.09
2018-12-02T14:14:17.256Z,4.93
2018-12-02T14:17:02.163Z,4.81
2018-12-02T14:19:34.364Z,4.77
2018-12-02T14:22:06.220Z,4.69
2018-12-02T14:24:37.709Z,4.54
2018-12-02T14:27:10.826Z,4.50
2018-12-02T14:29:50.734Z,4.49
2018-12-02T14:32:24.578Z,4.39
2018-12-02T14:34:56.511Z,4.33
2018-12-02T14:37:28.505Z,4.27
2018-12-02T14:40:00.790Z,4.13
2018-12-02T14:42:33.683Z,3.96
2018-12-02T14:45:06.107Z,3.85
2018-12-02T14:47:37.453Z,3.74
2018-12-02T14:50:13.568Z,3.53
2018-12-02T14:52:45.978Z,3.43
2018-12-02T14:55:19.775Z,3.19
2018-12-02T14:57:55.284Z,3.12
2018-12-02T15:00:27.591Z,3.01
2018-12-02T15:02:59.063Z,2.86
2018-12-02T15:05:30.167Z,2.69
2018-12-02T15:08:01.380Z,2.82
2018-12-02T15:10:33.470Z,3.06
2018-12-02T15:13:04.775Z,2.99
2018-12-02T15:15:36.818Z,2.79
2018-12-02T15:18:08.824Z,2.65
2018-12-02T15:20:40.396Z,2.36
2018-12-02T15:23:15.925Z,2.18
2018-12-02T15:25:47.458Z,2.09
2018-12-02T15:28:20.848Z,1.95
2018-12-02T15:30:52.804Z,1.84
2018-12-02T15:33:25.296Z,1.77
2018-12-02T15:35:57.049Z,1.81
2018-12-02T15:38:28.321Z,1.70
2018-12-02T15:40:59.513Z,1.60
2018-12-02T15:43:31.331Z,1.55
2018-12-02T15:46:07.257Z,1.62
2018-12-02T15:48:42.289Z,1.37
2018-12-02T15:51:13.911Z,1.04
2018-12-02T15:53:46.074Z,1.19
2018-12-02T15:56:17.290Z,0.95
2018-12-02T15:58:49.399Z,0.49
2018-12-02T16:01:22.361Z,0.28
2018-12-02T16:03:54.203Z,0.41
2018-12-02T16:06:25.672Z,0.23
2018-12-02T16:08:57.651Z,0.38
2018-12-02T16:11:29.151Z,0.29
2018-12-02T16:14:02.196Z,0.39
2018-12-02T16:16:34.868Z,0.20
2018-12-02T16:19:08.964Z,-0.01
2018-12-02T16:21:40.165Z,-0.13
2018-12-02T16:24:12.441Z,0.07
2018-12-02T16:26:44.419Z,0.20
2018-12-02T16:29:19.546Z,0.24
2018-12-02T16:31:52.032Z,0.33
2018-12-02T16:34:23.807Z,0.37
2018-12-02T16:36:59.752Z,0.35
2018-12-02T16:39:31.016Z,0.36
2018-12-02T16:42:03.135Z,0.30
2018-12-02T16:44:36.581Z,0.26
2018-12-02T16:47:15.833Z,0.21
2018-12-02T16:49:51.257Z,0.10
2018-12-02T16:52:24.480Z,-0.07
2018-12-02T16:55:16.631Z,-0.21
2018-12-02T16:57:52.325Z,-0.17
2018-12-02T17:00:26.303Z,-0.33
2018-12-02T17:02:57.843Z,-0.53
2018-12-02T17:05:29.995Z,-0.71
2018-12-02T17:08:01.525Z,-0.77
2018-12-02T17:10:33.763Z,-0.69
2018-12-02T17:13:06.431Z,-0.69
2018-12-02T17:15:37.933Z,-0.98
2018-12-02T17:18:09.563Z,-1.07
2018-12-02T17:20:41.284Z,-1.08
2018-12-02T17:23:13.077Z,-1.10
2018-12-02T17:25:44.992Z,-0.96
2018-12-02T17:28:16.516Z,-0.94
2018-12-02T17:30:52.093Z,-1.18
2018-12-02T17:33:23.779Z,-1.00
2018-12-02T17:35:55.072Z,-1.16
2018-12-02T17:38:26.898Z,-1.03
2018-12-02T17:40:59.052Z,-0.82
2018-12-02T17:43:31.991Z,-0.79
2018-12-02T17:46:03.266Z,-0.68
2018-12-02T17:48:34.441Z,-0.65
2018-12-02T17:51:06.186Z,-0.60
2018-12-02T17:53:38.811Z,-0.56
2018-12-02T17:56:10.433Z,-0.49
2018-12-02T17:58:41.564Z,-0.49
2018-12-02T18:01:12.769Z,-0.52
2018-12-02T18:03:44.324Z,-0.72
2018-12-02T18:06:15.468Z,-1.03
2018-12-02T18:08:46.717Z,-1.19
2018-12-02T18:11:18.016Z,-1.53
2018-12-02T18:13:49.214Z,-1.32
2018-12-02T18:16:23.090Z,-1.50
2018-12-02T18:18:54.324Z,-1.74
2018-12-02T18:21:25.542Z,-1.97
2018-12-02T18:23:56.728Z,-1.93
2018-12-02T18:26:29.031Z,-1.76
2018-12-02T18:36:18.803Z,-1.25
2018-12-02T18:38:50.640Z,-1.33
2018-12-02T18:41:25.825Z,-1.51
2018-12-02T18:43:57.236Z,-1.60
2018-12-02T18:46:34.806Z,-1.63
2018-12-02T18:49:07.395Z,-1.42
2018-12-02T18:51:42.663Z,-1.48
2018-12-02T18:54:14.833Z,-1.40
2018-12-02T18:56:46.155Z,-1.24
2018-12-02T18:59:23.078Z,-1.20
2018-12-02T19:01:54.492Z,-1.25
2018-12-02T19:04:25.699Z,-1.49
2018-12-02T19:06:58.638Z,-1.30
2018-12-02T19:09:28.926Z,-1.57
2018-12-02T19:12:00.197Z,-1.71
2018-12-02T19:14:31.452Z,-1.84
2018-12-02T19:17:02.713Z,-1.97
2018-12-02T19:19:34.595Z,-1.88
2018-12-02T19:22:06.357Z,-1.92
2018-12-02T19:24:38.430Z,-2.24
2018-12-02T19:27:11.551Z,-2.01
2018-12-02T19:29:45.973Z,-2.00
2018-12-02T19:32:20.640Z,-1.95
2018-12-02T19:34:55.617Z,-1.81
2018-12-02T19:40:17.864Z,-1.94
2018-12-02T19:42:49.716Z,-2.00
2018-12-02T19:45:21.518Z,-2.09
2018-12-02T19:47:53.116Z,-2.42
2018-12-02T19:50:25.215Z,-2.62
2018-12-02T19:52:59.746Z,-2.50
2018-12-02T19:55:33.210Z,-2.28
2018-12-02T19:58:04.857Z,-2.29
2018-12-02T20:00:43.650Z,-2.38
2018-12-02T20:03:16.462Z,-2.17
2018-12-02T20:05:49.205Z,-2.29
2018-12-02T20:08:20.672Z,-2.81
2018-12-02T20:10:53.980Z,-3.03
2018-12-02T20:13:25.566Z,-2.97
2018-12-02T20:16:03.538Z,-2.60
2018-12-02T20:18:38.748Z,-2.35
2018-12-02T20:21:10.444Z,-2.16
2018-12-02T20:23:46.746Z,-2.26
2018-12-02T20:26:18.071Z,-2.07
2018-12-02T20:29:04.991Z,-2.00
2018-12-02T20:31:36.093Z,-1.91
2018-12-02T20:34:08.045Z,-2.31
2018-12-02T20:36:39.370Z,-2.60
2018-12-02T20:39:11.938Z,-2.45
2018-12-02T20:41:43.067Z,-2.50
2018-12-02T20:44:14.888Z,-2.52
2018-12-02T20:46:46.008Z,-2.55
2018-12-02T20:49:17.144Z,-2.30
2018-12-02T20:51:48.348Z,-2.35
2018-12-02T20:54:19.527Z,-2.43
2018-12-02T20:56:50.569Z,-2.25
2018-12-02T20:59:26.677Z,-2.28
2018-12-02T21:02:02.734Z,-2.42
2018-12-02T21:04:38.918Z,-2.43
2018-12-02T21:07:15.002Z,-2.36
2018-12-02T21:09:55.152Z,-2.49
2018-12-02T21:12:31.268Z,-2.48
2018-12-02T21:15:11.953Z,-2.49
2018-12-02T21:17:52.160Z,-2.85
2018-12-02T21:20:28.402Z,-3.05
2018-12-02T21:23:12.700Z,-2.83
2018-12-02T21:25:49.654Z,-2.67
2018-12-02T21:28:26.657Z,-2.71
2018-12-02T21:31:03.824Z,-2.73
2018-12-02T21:33:40.025Z,-2.72
2018-12-02T21:36:16.300Z,-3.02
2018-12-02T21:38:52.601Z,-3.25
2018-12-02T21:41:29.051Z,-3.15
2018-12-02T21:44:05.370Z,-2.80
2018-12-02T21:46:46.898Z,-2.82
2018-12-02T21:49:23.296Z,-2.98
2018-12-02T21:52:03.769Z,-3.21
2018-12-02T21:54:40.277Z,-3.50
2018-12-02T21:57:20.951Z,-3.47
2018-12-02T21:59:57.020Z,-3.32
2018-12-02T22:02:35.134Z,-3.21
2018-12-02T22:05:11.203Z,-3.22
2018-12-02T22:07:52.117Z,-3.08
2018-12-02T22:10:30.095Z,-3.08
2018-12-02T22:13:06.304Z,-3.03
2018-12-02T22:15:42.418Z,-2.87
2018-12-02T22:18:18.570Z,-2.74
2018-12-02T22:20:54.641Z,-2.66
2018-12-02T22:23:39.306Z,-2.55
2018-12-02T22:26:15.441Z,-3.04
2018-12-02T22:28:51.760Z,-3.28
2018-12-02T22:31:28.490Z,-3.60
2018-12-02T22:34:04.649Z,-4.06
2018-12-02T22:36:40.844Z,-4.20
2018-12-02T22:39:17.864Z,-4.08
2018-12-02T22:41:54.007Z,-3.86
2018-12-02T22:44:31.553Z,-3.63
2018-12-02T22:47:06.724Z,-3.48
2018-12-02T22:49:46.991Z,-3.17
2018-12-02T22:52:23.132Z,-3.18
2018-12-02T22:54:59.287Z,-3.45
2018-12-02T22:57:35.795Z,-3.61
2018-12-02T23:00:19.203Z,-3.25
2018-12-02T23:03:00.527Z,-3.21
2018-12-02T23:05:36.699Z,-3.39
2018-12-02T23:08:13.091Z,-3.22
2018-12-02T23:10:53.422Z,-3.10
2018-12-02T23:13:29.694Z,-2.96
2018-12-02T23:16:06.071Z,-3.05
2018-12-02T23:18:42.335Z,-3.46
2018-12-02T23:21:18.395Z,-3.97
2018-12-02T23:23:54.607Z,-3.96
2018-12-02T23:26:30.915Z,-3.88
2018-12-02T23:29:08.577Z,-3.76
2018-12-02T23:31:43.574Z,-3.81
2018-12-02T23:34:19.868Z,-3.65
2018-12-02T23:36:56.128Z,-3.73
2018-12-02T23:39:33.127Z,-4.01
2018-12-02T23:42:09.392Z,-4.31
2018-12-02T23:44:45.475Z,-4.53
2018-12-02T23:47:22.761Z,-4.68
2018-12-02T23:49:58.988Z,-4.60
2018-12-02T23:52:35.344Z,-4.49
2018-12-02T23:55:12.491Z,-4.35
2018-12-02T23:57:48.861Z,-4.47
